Hebron, Nebraska
Current Conditions -  °F | °C
As of 4:55 PM on Thursday 23 Oct 2014 (Local Time) from KHJH Reporting Station
Clear Clear  
Wind Chill: 73°   Ceiling: Unl
Heat Index: 73°   Visibility: 10mi
Dew Point: 54°   Wind: 8mph
Humidity: 53%   Direction: 250°WSW
Pressure: 30.02"   Gusts: NA
Location:  40.17°N, 97.59°W
Report Text: KHJH 232155Z AUTO 25007KT 10SM CLR 23/12 A3002 RMK AO2 T02250124
Loading
Personal Weather Stations






























Interactive Weather Map
Tropical Storm Tracking
New forecast layout! Learn more

10-Day Weather Forecast

Advertisements
Track Severe Weather on mobile